sensor_id;sensor_type;location;lat;lon;timestamp;P1;durP1;ratioP1;P2;durP2;ratioP2
43248;SDS011;29216;51.248;6.808;2023-07-16T00:00:49;5.22;;;3.03;;
43248;SDS011;29216;51.248;6.808;2023-07-16T00:03:15;5.13;;;2.70;;
43248;SDS011;29216;51.248;6.808;2023-07-16T00:05:41;6.60;;;3.17;;
43248;SDS011;29216;51.248;6.808;2023-07-16T00:08:08;6.00;;;3.00;;
43248;SDS011;29216;51.248;6.808;2023-07-16T00:10:37;4.15;;;2.70;;
43248;SDS011;29216;51.248;6.808;2023-07-16T00:13:03;4.43;;;2.45;;
43248;SDS011;29216;51.248;6.808;2023-07-16T00:15:29;7.50;;;2.85;;
43248;SDS011;29216;51.248;6.808;2023-07-16T00:17:55;7.80;;;4.15;;
43248;SDS011;29216;51.248;6.808;2023-07-16T00:20:21;5.45;;;3.08;;
43248;SDS011;29216;51.248;6.808;2023-07-16T00:22:50;4.65;;;2.90;;
43248;SDS011;29216;51.248;6.808;2023-07-16T00:25:16;5.05;;;3.10;;
43248;SDS011;29216;51.248;6.808;2023-07-16T00:27:42;7.05;;;3.00;;
43248;SDS011;29216;51.248;6.808;2023-07-16T00:30:08;4.18;;;2.40;;
43248;SDS011;29216;51.248;6.808;2023-07-16T00:32:35;5.57;;;2.85;;
43248;SDS011;29216;51.248;6.808;2023-07-16T00:35:01;7.57;;;3.00;;
43248;SDS011;29216;51.248;6.808;2023-07-16T00:37:27;4.10;;;2.60;;
43248;SDS011;29216;51.248;6.808;2023-07-16T00:39:53;5.13;;;2.53;;
43248;SDS011;29216;51.248;6.808;2023-07-16T00:42:19;7.72;;;3.53;;
43248;SDS011;29216;51.248;6.808;2023-07-16T00:44:45;5.20;;;2.67;;
43248;SDS011;29216;51.248;6.808;2023-07-16T00:47:11;3.38;;;2.65;;
43248;SDS011;29216;51.248;6.808;2023-07-16T00:49:37;7.28;;;3.13;;
43248;SDS011;29216;51.248;6.808;2023-07-16T00:52:04;10.70;;;2.95;;
43248;SDS011;29216;51.248;6.808;2023-07-16T00:54:31;4.68;;;2.97;;
43248;SDS011;29216;51.248;6.808;2023-07-16T00:56:57;6.93;;;3.67;;
43248;SDS011;29216;51.248;6.808;2023-07-16T00:59:23;9.18;;;4.03;;
43248;SDS011;29216;51.248;6.808;2023-07-16T01:01:49;5.57;;;3.65;;
43248;SDS011;29216;51.248;6.808;2023-07-16T01:04:15;8.60;;;4.35;;
43248;SDS011;29216;51.248;6.808;2023-07-16T01:06:42;5.88;;;4.30;;
43248;SDS011;29216;51.248;6.808;2023-07-16T01:09:16;9.43;;;4.70;;
43248;SDS011;29216;51.248;6.808;2023-07-16T01:11:42;8.57;;;5.00;;
43248;SDS011;29216;51.248;6.808;2023-07-16T01:14:09;9.23;;;5.35;;
43248;SDS011;29216;51.248;6.808;2023-07-16T01:16:35;9.85;;;4.68;;
43248;SDS011;29216;51.248;6.808;2023-07-16T01:19:01;7.93;;;5.18;;
43248;SDS011;29216;51.248;6.808;2023-07-16T01:21:51;10.90;;;4.72;;
43248;SDS011;29216;51.248;6.808;2023-07-16T01:29:28;15.43;;;6.55;;
43248;SDS011;29216;51.248;6.808;2023-07-16T01:31:55;6.40;;;3.95;;
43248;SDS011;29216;51.248;6.808;2023-07-16T01:34:21;9.98;;;4.18;;
43248;SDS011;29216;51.248;6.808;2023-07-16T01:36:47;6.63;;;3.50;;
43248;SDS011;29216;51.248;6.808;2023-07-16T01:39:14;11.38;;;3.28;;
43248;SDS011;29216;51.248;6.808;2023-07-16T01:41:40;6.07;;;3.15;;
43248;SDS011;29216;51.248;6.808;2023-07-16T01:44:06;6.20;;;3.25;;
43248;SDS011;29216;51.248;6.808;2023-07-16T01:46:32;8.57;;;3.30;;
43248;SDS011;29216;51.248;6.808;2023-07-16T01:48:58;8.02;;;2.95;;
43248;SDS011;29216;51.248;6.808;2023-07-16T01:51:24;8.18;;;2.95;;
43248;SDS011;29216;51.248;6.808;2023-07-16T01:53:50;4.75;;;2.78;;
43248;SDS011;29216;51.248;6.808;2023-07-16T01:56:16;5.80;;;3.15;;
43248;SDS011;29216;51.248;6.808;2023-07-16T01:58:42;6.75;;;2.85;;
43248;SDS011;29216;51.248;6.808;2023-07-16T02:01:08;12.77;;;3.05;;
43248;SDS011;29216;51.248;6.808;2023-07-16T02:03:34;8.50;;;3.28;;
43248;SDS011;29216;51.248;6.808;2023-07-16T02:06:00;5.18;;;2.90;;
43248;SDS011;29216;51.248;6.808;2023-07-16T02:08:26;8.23;;;3.30;;
43248;SDS011;29216;51.248;6.808;2023-07-16T02:10:52;8.63;;;3.50;;
43248;SDS011;29216;51.248;6.808;2023-07-16T02:13:18;7.18;;;3.33;;
43248;SDS011;29216;51.248;6.808;2023-07-16T02:15:44;12.95;;;3.35;;
43248;SDS011;29216;51.248;6.808;2023-07-16T02:18:10;6.35;;;2.75;;
43248;SDS011;29216;51.248;6.808;2023-07-16T02:20:36;9.55;;;2.92;;
43248;SDS011;29216;51.248;6.808;2023-07-16T02:23:02;8.13;;;3.28;;
43248;SDS011;29216;51.248;6.808;2023-07-16T02:25:28;10.15;;;3.60;;
43248;SDS011;29216;51.248;6.808;2023-07-16T02:27:54;6.95;;;3.00;;
43248;SDS011;29216;51.248;6.808;2023-07-16T02:30:20;5.57;;;2.85;;
43248;SDS011;29216;51.248;6.808;2023-07-16T02:32:46;3.45;;;2.70;;
43248;SDS011;29216;51.248;6.808;2023-07-16T02:35:12;9.10;;;3.45;;
43248;SDS011;29216;51.248;6.808;2023-07-16T02:37:39;7.63;;;3.00;;
43248;SDS011;29216;51.248;6.808;2023-07-16T02:40:05;5.65;;;2.97;;
43248;SDS011;29216;51.248;6.808;2023-07-16T02:42:32;6.28;;;3.30;;
43248;SDS011;29216;51.248;6.808;2023-07-16T02:44:58;6.57;;;3.00;;
43248;SDS011;29216;51.248;6.808;2023-07-16T02:47:24;7.43;;;2.90;;
43248;SDS011;29216;51.248;6.808;2023-07-16T02:49:53;9.00;;;3.05;;
43248;SDS011;29216;51.248;6.808;2023-07-16T02:52:19;9.07;;;2.95;;
43248;SDS011;29216;51.248;6.808;2023-07-16T02:54:45;6.22;;;3.20;;
43248;SDS011;29216;51.248;6.808;2023-07-16T02:57:10;9.73;;;3.05;;
43248;SDS011;29216;51.248;6.808;2023-07-16T02:59:36;8.50;;;3.17;;
43248;SDS011;29216;51.248;6.808;2023-07-16T03:02:02;9.25;;;3.13;;
43248;SDS011;29216;51.248;6.808;2023-07-16T03:04:29;10.45;;;4.03;;
43248;SDS011;29216;51.248;6.808;2023-07-16T03:06:54;7.03;;;2.72;;
43248;SDS011;29216;51.248;6.808;2023-07-16T03:09:20;3.60;;;2.50;;
43248;SDS011;29216;51.248;6.808;2023-07-16T03:11:46;8.73;;;2.85;;
43248;SDS011;29216;51.248;6.808;2023-07-16T03:14:12;6.80;;;2.80;;
43248;SDS011;29216;51.248;6.808;2023-07-16T03:16:38;6.82;;;2.75;;
43248;SDS011;29216;51.248;6.808;2023-07-16T03:19:04;7.03;;;2.70;;
43248;SDS011;29216;51.248;6.808;2023-07-16T03:21:31;6.80;;;2.88;;
43248;SDS011;29216;51.248;6.808;2023-07-16T03:23:57;6.60;;;3.00;;
43248;SDS011;29216;51.248;6.808;2023-07-16T03:26:23;4.68;;;2.42;;
43248;SDS011;29216;51.248;6.808;2023-07-16T03:28:49;4.93;;;2.53;;
43248;SDS011;29216;51.248;6.808;2023-07-16T03:31:15;7.13;;;3.08;;
43248;SDS011;29216;51.248;6.808;2023-07-16T03:33:41;8.02;;;2.97;;
43248;SDS011;29216;51.248;6.808;2023-07-16T03:36:06;8.48;;;3.20;;
43248;SDS011;29216;51.248;6.808;2023-07-16T03:38:32;4.10;;;2.80;;
43248;SDS011;29216;51.248;6.808;2023-07-16T03:40:58;9.23;;;3.03;;
43248;SDS011;29216;51.248;6.808;2023-07-16T03:43:25;3.83;;;2.60;;
43248;SDS011;29216;51.248;6.808;2023-07-16T03:45:51;7.15;;;2.65;;
43248;SDS011;29216;51.248;6.808;2023-07-16T03:48:17;5.70;;;2.65;;
43248;SDS011;29216;51.248;6.808;2023-07-16T03:50:43;6.32;;;2.65;;
43248;SDS011;29216;51.248;6.808;2023-07-16T03:53:09;6.78;;;2.83;;
43248;SDS011;29216;51.248;6.808;2023-07-16T03:55:35;4.75;;;2.53;;
43248;SDS011;29216;51.248;6.808;2023-07-16T03:58:01;8.25;;;2.78;;
43248;SDS011;29216;51.248;6.808;2023-07-16T04:00:27;6.75;;;2.60;;
43248;SDS011;29216;51.248;6.808;2023-07-16T04:02:53;5.50;;;2.88;;
43248;SDS011;29216;51.248;6.808;2023-07-16T04:05:19;8.98;;;2.90;;
43248;SDS011;29216;51.248;6.808;2023-07-16T04:07:45;4.25;;;2.40;;
43248;SDS011;29216;51.248;6.808;2023-07-16T04:10:11;5.30;;;2.17;;
43248;SDS011;29216;51.248;6.808;2023-07-16T04:12:37;8.30;;;3.40;;
43248;SDS011;29216;51.248;6.808;2023-07-16T04:15:06;10.70;;;3.08;;
43248;SDS011;29216;51.248;6.808;2023-07-16T04:17:32;5.90;;;2.58;;
43248;SDS011;29216;51.248;6.808;2023-07-16T04:19:58;7.90;;;3.20;;
43248;SDS011;29216;51.248;6.808;2023-07-16T04:22:24;8.13;;;3.22;;
43248;SDS011;29216;51.248;6.808;2023-07-16T04:24:50;6.45;;;3.20;;
43248;SDS011;29216;51.248;6.808;2023-07-16T04:27:16;5.85;;;2.88;;
43248;SDS011;29216;51.248;6.808;2023-07-16T04:29:42;6.25;;;2.72;;
43248;SDS011;29216;51.248;6.808;2023-07-16T04:32:08;10.18;;;3.50;;
43248;SDS011;29216;51.248;6.808;2023-07-16T04:34:34;4.07;;;2.72;;
43248;SDS011;29216;51.248;6.808;2023-07-16T04:37:00;10.88;;;3.05;;
43248;SDS011;29216;51.248;6.808;2023-07-16T04:39:26;6.32;;;2.88;;
43248;SDS011;29216;51.248;6.808;2023-07-16T04:41:52;5.03;;;2.72;;
43248;SDS011;29216;51.248;6.808;2023-07-16T04:44:18;6.13;;;2.65;;
43248;SDS011;29216;51.248;6.808;2023-07-16T04:46:44;7.55;;;2.88;;
43248;SDS011;29216;51.248;6.808;2023-07-16T04:49:10;7.45;;;3.10;;
43248;SDS011;29216;51.248;6.808;2023-07-16T04:51:36;7.97;;;3.10;;
43248;SDS011;29216;51.248;6.808;2023-07-16T04:54:02;7.82;;;3.13;;
43248;SDS011;29216;51.248;6.808;2023-07-16T04:56:28;10.98;;;3.30;;
43248;SDS011;29216;51.248;6.808;2023-07-16T04:58:54;6.35;;;2.72;;
43248;SDS011;29216;51.248;6.808;2023-07-16T05:01:20;6.28;;;3.10;;
43248;SDS011;29216;51.248;6.808;2023-07-16T05:03:46;6.65;;;2.95;;
43248;SDS011;29216;51.248;6.808;2023-07-16T05:06:12;5.38;;;2.80;;
43248;SDS011;29216;51.248;6.808;2023-07-16T05:08:38;7.13;;;3.25;;
43248;SDS011;29216;51.248;6.808;2023-07-16T05:11:04;7.65;;;2.70;;
43248;SDS011;29216;51.248;6.808;2023-07-16T05:13:30;6.38;;;2.90;;
43248;SDS011;29216;51.248;6.808;2023-07-16T05:15:56;4.88;;;2.67;;
43248;SDS011;29216;51.248;6.808;2023-07-16T05:18:22;7.43;;;3.05;;
43248;SDS011;29216;51.248;6.808;2023-07-16T05:20:48;7.25;;;3.13;;
43248;SDS011;29216;51.248;6.808;2023-07-16T05:23:14;5.22;;;3.30;;
43248;SDS011;29216;51.248;6.808;2023-07-16T05:25:47;6.75;;;3.00;;
43248;SDS011;29216;51.248;6.808;2023-07-16T05:28:14;8.10;;;3.00;;
43248;SDS011;29216;51.248;6.808;2023-07-16T05:30:40;6.28;;;3.42;;
43248;SDS011;29216;51.248;6.808;2023-07-16T05:33:06;6.32;;;3.08;;
43248;SDS011;29216;51.248;6.808;2023-07-16T05:35:32;7.63;;;3.17;;
43248;SDS011;29216;51.248;6.808;2023-07-16T05:37:58;8.45;;;3.63;;
43248;SDS011;29216;51.248;6.808;2023-07-16T05:40:24;10.45;;;3.10;;
43248;SDS011;29216;51.248;6.808;2023-07-16T05:42:50;7.97;;;3.45;;
43248;SDS011;29216;51.248;6.808;2023-07-16T05:45:16;8.20;;;2.75;;
43248;SDS011;29216;51.248;6.808;2023-07-16T05:47:42;7.60;;;3.40;;
43248;SDS011;29216;51.248;6.808;2023-07-16T05:50:08;13.65;;;3.60;;
43248;SDS011;29216;51.248;6.808;2023-07-16T05:52:34;7.82;;;3.47;;
43248;SDS011;29216;51.248;6.808;2023-07-16T05:55:00;9.02;;;4.30;;
43248;SDS011;29216;51.248;6.808;2023-07-16T05:57:26;5.90;;;3.40;;
43248;SDS011;29216;51.248;6.808;2023-07-16T05:59:52;8.48;;;3.72;;
43248;SDS011;29216;51.248;6.808;2023-07-16T06:02:18;7.47;;;3.40;;
43248;SDS011;29216;51.248;6.808;2023-07-16T06:04:44;9.38;;;3.53;;
43248;SDS011;29216;51.248;6.808;2023-07-16T06:07:10;5.50;;;3.63;;
43248;SDS011;29216;51.248;6.808;2023-07-16T06:09:36;7.35;;;3.55;;
43248;SDS011;29216;51.248;6.808;2023-07-16T06:12:02;8.88;;;3.47;;
43248;SDS011;29216;51.248;6.808;2023-07-16T06:14:28;8.43;;;3.80;;
43248;SDS011;29216;51.248;6.808;2023-07-16T06:16:54;7.32;;;3.60;;
43248;SDS011;29216;51.248;6.808;2023-07-16T06:19:20;8.32;;;3.42;;
43248;SDS011;29216;51.248;6.808;2023-07-16T06:21:46;7.45;;;3.55;;
43248;SDS011;29216;51.248;6.808;2023-07-16T06:24:12;8.98;;;4.15;;
43248;SDS011;29216;51.248;6.808;2023-07-16T06:26:38;7.43;;;3.83;;
43248;SDS011;29216;51.248;6.808;2023-07-16T06:29:04;10.13;;;3.90;;
43248;SDS011;29216;51.248;6.808;2023-07-16T06:31:30;12.10;;;3.90;;
43248;SDS011;29216;51.248;6.808;2023-07-16T06:33:56;6.68;;;3.90;;
43248;SDS011;29216;51.248;6.808;2023-07-16T06:36:22;9.00;;;4.00;;
43248;SDS011;29216;51.248;6.808;2023-07-16T06:38:48;9.77;;;4.03;;
43248;SDS011;29216;51.248;6.808;2023-07-16T06:41:14;8.27;;;4.10;;
43248;SDS011;29216;51.248;6.808;2023-07-16T06:43:40;8.40;;;3.80;;
43248;SDS011;29216;51.248;6.808;2023-07-16T06:46:06;8.88;;;4.32;;
43248;SDS011;29216;51.248;6.808;2023-07-16T06:48:32;5.82;;;3.40;;
43248;SDS011;29216;51.248;6.808;2023-07-16T06:50:59;5.70;;;3.60;;
43248;SDS011;29216;51.248;6.808;2023-07-16T06:53:25;7.03;;;3.40;;
43248;SDS011;29216;51.248;6.808;2023-07-16T06:55:51;6.15;;;3.38;;
43248;SDS011;29216;51.248;6.808;2023-07-16T06:58:17;7.85;;;4.25;;
43248;SDS011;29216;51.248;6.808;2023-07-16T07:00:43;10.48;;;3.72;;
43248;SDS011;29216;51.248;6.808;2023-07-16T07:03:09;8.60;;;3.70;;
43248;SDS011;29216;51.248;6.808;2023-07-16T07:05:35;6.32;;;3.28;;
43248;SDS011;29216;51.248;6.808;2023-07-16T07:08:01;5.90;;;3.35;;
43248;SDS011;29216;51.248;6.808;2023-07-16T07:10:28;5.70;;;3.80;;
43248;SDS011;29216;51.248;6.808;2023-07-16T07:12:53;8.88;;;3.60;;
43248;SDS011;29216;51.248;6.808;2023-07-16T07:15:19;6.18;;;3.35;;
43248;SDS011;29216;51.248;6.808;2023-07-16T07:17:45;7.22;;;3.80;;
43248;SDS011;29216;51.248;6.808;2023-07-16T07:20:12;6.60;;;3.42;;
43248;SDS011;29216;51.248;6.808;2023-07-16T07:22:39;7.70;;;3.97;;
43248;SDS011;29216;51.248;6.808;2023-07-16T07:25:05;6.32;;;3.60;;
43248;SDS011;29216;51.248;6.808;2023-07-16T07:27:31;10.25;;;3.63;;
43248;SDS011;29216;51.248;6.808;2023-07-16T07:29:57;5.97;;;3.33;;
43248;SDS011;29216;51.248;6.808;2023-07-16T07:32:23;8.73;;;3.90;;
43248;SDS011;29216;51.248;6.808;2023-07-16T07:34:49;11.07;;;3.70;;
43248;SDS011;29216;51.248;6.808;2023-07-16T07:37:15;7.10;;;3.60;;
43248;SDS011;29216;51.248;6.808;2023-07-16T07:39:41;7.18;;;3.47;;
43248;SDS011;29216;51.248;6.808;2023-07-16T07:42:07;5.63;;;3.35;;
43248;SDS011;29216;51.248;6.808;2023-07-16T07:44:34;6.45;;;3.75;;
43248;SDS011;29216;51.248;6.808;2023-07-16T07:47:00;8.57;;;3.83;;
43248;SDS011;29216;51.248;6.808;2023-07-16T07:49:26;5.18;;;3.65;;
43248;SDS011;29216;51.248;6.808;2023-07-16T07:51:52;7.07;;;3.70;;
43248;SDS011;29216;51.248;6.808;2023-07-16T07:54:20;5.90;;;3.83;;
43248;SDS011;29216;51.248;6.808;2023-07-16T07:56:46;9.52;;;3.75;;
43248;SDS011;29216;51.248;6.808;2023-07-16T07:59:12;6.93;;;3.85;;
43248;SDS011;29216;51.248;6.808;2023-07-16T08:01:38;9.95;;;3.55;;
43248;SDS011;29216;51.248;6.808;2023-07-16T08:04:04;7.63;;;4.07;;
43248;SDS011;29216;51.248;6.808;2023-07-16T08:06:30;9.98;;;3.85;;
43248;SDS011;29216;51.248;6.808;2023-07-16T08:08:56;6.72;;;3.78;;
43248;SDS011;29216;51.248;6.808;2023-07-16T08:11:21;5.90;;;3.47;;
43248;SDS011;29216;51.248;6.808;2023-07-16T08:13:47;6.50;;;3.65;;
43248;SDS011;29216;51.248;6.808;2023-07-16T08:16:14;7.40;;;3.60;;
43248;SDS011;29216;51.248;6.808;2023-07-16T08:18:40;5.75;;;3.50;;
43248;SDS011;29216;51.248;6.808;2023-07-16T08:21:06;6.85;;;3.50;;
43248;SDS011;29216;51.248;6.808;2023-07-16T08:23:32;4.95;;;3.03;;
43248;SDS011;29216;51.248;6.808;2023-07-16T08:25:58;5.03;;;3.70;;
43248;SDS011;29216;51.248;6.808;2023-07-16T08:28:24;6.53;;;3.25;;
43248;SDS011;29216;51.248;6.808;2023-07-16T08:30:50;10.10;;;3.47;;
43248;SDS011;29216;51.248;6.808;2023-07-16T08:33:16;6.95;;;3.33;;
43248;SDS011;29216;51.248;6.808;2023-07-16T08:35:42;6.00;;;3.40;;
43248;SDS011;29216;51.248;6.808;2023-07-16T08:38:08;7.05;;;3.35;;
43248;SDS011;29216;51.248;6.808;2023-07-16T08:40:36;8.48;;;4.28;;
43248;SDS011;29216;51.248;6.808;2023-07-16T08:43:02;5.50;;;3.40;;
43248;SDS011;29216;51.248;6.808;2023-07-16T08:45:28;6.70;;;3.40;;
43248;SDS011;29216;51.248;6.808;2023-07-16T08:47:55;5.78;;;3.70;;
43248;SDS011;29216;51.248;6.808;2023-07-16T08:50:21;5.97;;;3.78;;
43248;SDS011;29216;51.248;6.808;2023-07-16T08:52:47;7.35;;;3.40;;
43248;SDS011;29216;51.248;6.808;2023-07-16T08:55:13;5.72;;;3.60;;
43248;SDS011;29216;51.248;6.808;2023-07-16T08:57:39;5.53;;;3.90;;
43248;SDS011;29216;51.248;6.808;2023-07-16T09:00:06;8.82;;;3.80;;
43248;SDS011;29216;51.248;6.808;2023-07-16T09:02:32;6.57;;;3.20;;
43248;SDS011;29216;51.248;6.808;2023-07-16T09:04:58;7.45;;;3.53;;
43248;SDS011;29216;51.248;6.808;2023-07-16T09:07:24;7.68;;;3.60;;
43248;SDS011;29216;51.248;6.808;2023-07-16T09:09:57;5.50;;;3.53;;
43248;SDS011;29216;51.248;6.808;2023-07-16T09:12:23;7.88;;;3.70;;
43248;SDS011;29216;51.248;6.808;2023-07-16T09:14:49;7.32;;;3.60;;
43248;SDS011;29216;51.248;6.808;2023-07-16T09:17:20;6.38;;;3.13;;
43248;SDS011;29216;51.248;6.808;2023-07-16T09:19:47;7.20;;;3.47;;
43248;SDS011;29216;51.248;6.808;2023-07-16T09:22:13;7.47;;;3.35;;
43248;SDS011;29216;51.248;6.808;2023-07-16T09:24:39;9.95;;;5.38;;
43248;SDS011;29216;51.248;6.808;2023-07-16T09:27:05;7.05;;;3.80;;
43248;SDS011;29216;51.248;6.808;2023-07-16T09:29:31;8.15;;;3.70;;
43248;SDS011;29216;51.248;6.808;2023-07-16T09:31:58;5.82;;;3.50;;
43248;SDS011;29216;51.248;6.808;2023-07-16T09:34:26;6.95;;;3.35;;
43248;SDS011;29216;51.248;6.808;2023-07-16T09:36:53;9.20;;;3.75;;
43248;SDS011;29216;51.248;6.808;2023-07-16T09:39:19;9.27;;;3.53;;
43248;SDS011;29216;51.248;6.808;2023-07-16T09:41:48;5.80;;;3.97;;
43248;SDS011;29216;51.248;6.808;2023-07-16T09:44:15;8.30;;;4.05;;
43248;SDS011;29216;51.248;6.808;2023-07-16T09:46:41;7.63;;;3.90;;
43248;SDS011;29216;51.248;6.808;2023-07-16T09:49:07;9.68;;;4.03;;
43248;SDS011;29216;51.248;6.808;2023-07-16T09:51:37;4.72;;;3.50;;
43248;SDS011;29216;51.248;6.808;2023-07-16T09:54:04;7.68;;;3.42;;
43248;SDS011;29216;51.248;6.808;2023-07-16T09:56:40;6.18;;;3.90;;
43248;SDS011;29216;51.248;6.808;2023-07-16T09:59:27;7.07;;;3.45;;
43248;SDS011;29216;51.248;6.808;2023-07-16T10:01:54;5.82;;;3.33;;
43248;SDS011;29216;51.248;6.808;2023-07-16T10:04:21;6.50;;;3.90;;
43248;SDS011;29216;51.248;6.808;2023-07-16T10:06:57;8.93;;;3.75;;
43248;SDS011;29216;51.248;6.808;2023-07-16T10:12:15;8.60;;;3.70;;
43248;SDS011;29216;51.248;6.808;2023-07-16T10:22:36;7.97;;;3.85;;
43248;SDS011;29216;51.248;6.808;2023-07-16T10:25:07;6.63;;;3.80;;
43248;SDS011;29216;51.248;6.808;2023-07-16T10:27:34;8.38;;;3.60;;
43248;SDS011;29216;51.248;6.808;2023-07-16T10:30:00;7.93;;;3.55;;
43248;SDS011;29216;51.248;6.808;2023-07-16T10:32:30;7.72;;;3.47;;
43248;SDS011;29216;51.248;6.808;2023-07-16T10:34:56;6.38;;;3.75;;
43248;SDS011;29216;51.248;6.808;2023-07-16T10:37:23;6.07;;;3.58;;
43248;SDS011;29216;51.248;6.808;2023-07-16T10:39:49;6.43;;;3.60;;
43248;SDS011;29216;51.248;6.808;2023-07-16T10:42:16;7.18;;;3.50;;
43248;SDS011;29216;51.248;6.808;2023-07-16T10:44:43;8.55;;;3.95;;
43248;SDS011;29216;51.248;6.808;2023-07-16T10:47:09;5.15;;;3.40;;
43248;SDS011;29216;51.248;6.808;2023-07-16T10:49:36;6.68;;;3.72;;
43248;SDS011;29216;51.248;6.808;2023-07-16T10:52:02;9.65;;;3.55;;
43248;SDS011;29216;51.248;6.808;2023-07-16T10:54:28;5.85;;;3.30;;
43248;SDS011;29216;51.248;6.808;2023-07-16T10:56:54;5.90;;;3.60;;
43248;SDS011;29216;51.248;6.808;2023-07-16T10:59:20;5.55;;;3.67;;
43248;SDS011;29216;51.248;6.808;2023-07-16T11:01:46;6.45;;;3.50;;
43248;SDS011;29216;51.248;6.808;2023-07-16T11:04:12;5.80;;;3.83;;
43248;SDS011;29216;51.248;6.808;2023-07-16T11:06:38;8.13;;;3.65;;
43248;SDS011;29216;51.248;6.808;2023-07-16T11:09:08;6.43;;;3.47;;
43248;SDS011;29216;51.248;6.808;2023-07-16T11:11:34;6.80;;;3.40;;
43248;SDS011;29216;51.248;6.808;2023-07-16T11:14:03;8.20;;;3.60;;
43248;SDS011;29216;51.248;6.808;2023-07-16T11:16:32;6.18;;;3.72;;
43248;SDS011;29216;51.248;6.808;2023-07-16T11:18:58;9.48;;;3.40;;
43248;SDS011;29216;51.248;6.808;2023-07-16T11:21:24;7.80;;;3.72;;
43248;SDS011;29216;51.248;6.808;2023-07-16T11:23:50;11.93;;;3.13;;
43248;SDS011;29216;51.248;6.808;2023-07-16T11:26:16;5.65;;;3.20;;
43248;SDS011;29216;51.248;6.808;2023-07-16T11:28:42;7.43;;;3.45;;
43248;SDS011;29216;51.248;6.808;2023-07-16T11:31:15;5.63;;;3.53;;
43248;SDS011;29216;51.248;6.808;2023-07-16T11:33:42;6.35;;;3.33;;
43248;SDS011;29216;51.248;6.808;2023-07-16T11:36:08;11.70;;;3.45;;
43248;SDS011;29216;51.248;6.808;2023-07-16T11:38:38;4.57;;;3.20;;
43248;SDS011;29216;51.248;6.808;2023-07-16T11:41:04;9.65;;;3.33;;
43248;SDS011;29216;51.248;6.808;2023-07-16T11:43:34;6.22;;;3.40;;
43248;SDS011;29216;51.248;6.808;2023-07-16T11:46:01;6.38;;;3.30;;
43248;SDS011;29216;51.248;6.808;2023-07-16T11:48:27;5.07;;;3.05;;
43248;SDS011;29216;51.248;6.808;2023-07-16T11:50:53;4.40;;;3.15;;
43248;SDS011;29216;51.248;6.808;2023-07-16T11:53:19;6.22;;;3.28;;
43248;SDS011;29216;51.248;6.808;2023-07-16T11:55:45;6.65;;;3.78;;
43248;SDS011;29216;51.248;6.808;2023-07-16T11:58:11;4.55;;;3.20;;
43248;SDS011;29216;51.248;6.808;2023-07-16T12:00:37;6.32;;;3.30;;
43248;SDS011;29216;51.248;6.808;2023-07-16T12:03:03;5.47;;;3.20;;
43248;SDS011;29216;51.248;6.808;2023-07-16T12:05:29;7.00;;;3.47;;
43248;SDS011;29216;51.248;6.808;2023-07-16T12:07:55;6.85;;;3.85;;
43248;SDS011;29216;51.248;6.808;2023-07-16T12:10:21;7.60;;;3.42;;
43248;SDS011;29216;51.248;6.808;2023-07-16T12:12:47;6.43;;;3.40;;
43248;SDS011;29216;51.248;6.808;2023-07-16T12:15:13;10.60;;;3.40;;
43248;SDS011;29216;51.248;6.808;2023-07-16T12:17:39;9.93;;;3.85;;
43248;SDS011;29216;51.248;6.808;2023-07-16T12:20:05;8.98;;;3.67;;
43248;SDS011;29216;51.248;6.808;2023-07-16T12:22:31;9.57;;;3.75;;
43248;SDS011;29216;51.248;6.808;2023-07-16T12:24:57;4.13;;;2.88;;
43248;SDS011;29216;51.248;6.808;2023-07-16T12:27:23;7.07;;;3.33;;
43248;SDS011;29216;51.248;6.808;2023-07-16T12:29:49;7.35;;;3.35;;
43248;SDS011;29216;51.248;6.808;2023-07-16T12:32:17;5.95;;;3.65;;
43248;SDS011;29216;51.248;6.808;2023-07-16T12:34:44;5.85;;;3.53;;
43248;SDS011;29216;51.248;6.808;2023-07-16T12:37:10;7.30;;;3.50;;
43248;SDS011;29216;51.248;6.808;2023-07-16T12:39:36;6.40;;;3.60;;
43248;SDS011;29216;51.248;6.808;2023-07-16T12:42:03;7.00;;;3.55;;
43248;SDS011;29216;51.248;6.808;2023-07-16T12:44:29;7.80;;;3.55;;
43248;SDS011;29216;51.248;6.808;2023-07-16T12:46:55;8.32;;;3.50;;
43248;SDS011;29216;51.248;6.808;2023-07-16T12:49:21;8.45;;;3.63;;
43248;SDS011;29216;51.248;6.808;2023-07-16T12:51:47;6.57;;;3.42;;
43248;SDS011;29216;51.248;6.808;2023-07-16T12:54:13;6.75;;;3.63;;
43248;SDS011;29216;51.248;6.808;2023-07-16T12:56:39;6.47;;;3.38;;
43248;SDS011;29216;51.248;6.808;2023-07-16T12:59:05;4.88;;;3.60;;
43248;SDS011;29216;51.248;6.808;2023-07-16T13:01:31;11.13;;;3.60;;
43248;SDS011;29216;51.248;6.808;2023-07-16T13:03:57;10.05;;;3.80;;
43248;SDS011;29216;51.248;6.808;2023-07-16T13:06:23;9.45;;;3.63;;
43248;SDS011;29216;51.248;6.808;2023-07-16T13:08:49;6.07;;;3.58;;
43248;SDS011;29216;51.248;6.808;2023-07-16T13:11:15;4.78;;;3.28;;
43248;SDS011;29216;51.248;6.808;2023-07-16T13:13:41;6.22;;;3.40;;
43248;SDS011;29216;51.248;6.808;2023-07-16T13:16:08;7.05;;;3.55;;
43248;SDS011;29216;51.248;6.808;2023-07-16T13:18:34;7.93;;;3.47;;
43248;SDS011;29216;51.248;6.808;2023-07-16T13:21:00;7.95;;;3.50;;
43248;SDS011;29216;51.248;6.808;2023-07-16T13:23:26;9.45;;;3.70;;
43248;SDS011;29216;51.248;6.808;2023-07-16T13:25:52;11.52;;;3.85;;
43248;SDS011;29216;51.248;6.808;2023-07-16T13:28:18;7.40;;;3.17;;
43248;SDS011;29216;51.248;6.808;2023-07-16T13:30:45;9.38;;;3.65;;
43248;SDS011;29216;51.248;6.808;2023-07-16T13:33:11;8.43;;;3.10;;
43248;SDS011;29216;51.248;6.808;2023-07-16T13:35:37;7.72;;;3.58;;
43248;SDS011;29216;51.248;6.808;2023-07-16T13:38:03;6.93;;;3.45;;
43248;SDS011;29216;51.248;6.808;2023-07-16T13:40:29;7.15;;;3.70;;
43248;SDS011;29216;51.248;6.808;2023-07-16T13:42:55;9.32;;;3.88;;
43248;SDS011;29216;51.248;6.808;2023-07-16T13:45:21;6.22;;;3.70;;
43248;SDS011;29216;51.248;6.808;2023-07-16T13:47:48;8.43;;;3.20;;
43248;SDS011;29216;51.248;6.808;2023-07-16T13:50:16;8.82;;;3.72;;
43248;SDS011;29216;51.248;6.808;2023-07-16T13:52:42;4.55;;;3.13;;
43248;SDS011;29216;51.248;6.808;2023-07-16T13:55:08;5.38;;;3.53;;
43248;SDS011;29216;51.248;6.808;2023-07-16T13:57:34;4.75;;;3.20;;
43248;SDS011;29216;51.248;6.808;2023-07-16T14:00:00;4.95;;;3.83;;
43248;SDS011;29216;51.248;6.808;2023-07-16T14:02:26;5.07;;;3.38;;
43248;SDS011;29216;51.248;6.808;2023-07-16T14:04:52;5.88;;;3.42;;
43248;SDS011;29216;51.248;6.808;2023-07-16T14:07:18;5.68;;;3.30;;
43248;SDS011;29216;51.248;6.808;2023-07-16T14:09:44;7.00;;;3.38;;
43248;SDS011;29216;51.248;6.808;2023-07-16T14:12:10;4.60;;;3.15;;
43248;SDS011;29216;51.248;6.808;2023-07-16T14:14:36;5.95;;;3.13;;
43248;SDS011;29216;51.248;6.808;2023-07-16T14:17:02;6.20;;;3.17;;
43248;SDS011;29216;51.248;6.808;2023-07-16T14:19:28;6.18;;;3.20;;
43248;SDS011;29216;51.248;6.808;2023-07-16T14:21:55;5.28;;;3.08;;
43248;SDS011;29216;51.248;6.808;2023-07-16T14:24:21;4.38;;;2.78;;
43248;SDS011;29216;51.248;6.808;2023-07-16T14:26:47;8.35;;;3.08;;
43248;SDS011;29216;51.248;6.808;2023-07-16T14:29:14;10.35;;;3.55;;
43248;SDS011;29216;51.248;6.808;2023-07-16T14:31:40;8.90;;;3.22;;
43248;SDS011;29216;51.248;6.808;2023-07-16T14:34:06;7.20;;;3.10;;
43248;SDS011;29216;51.248;6.808;2023-07-16T14:36:32;6.32;;;3.22;;
43248;SDS011;29216;51.248;6.808;2023-07-16T14:38:58;4.53;;;2.88;;
43248;SDS011;29216;51.248;6.808;2023-07-16T14:41:24;5.80;;;3.20;;
43248;SDS011;29216;51.248;6.808;2023-07-16T14:43:50;6.60;;;3.10;;
43248;SDS011;29216;51.248;6.808;2023-07-16T14:46:16;5.03;;;3.15;;
43248;SDS011;29216;51.248;6.808;2023-07-16T14:48:45;5.63;;;3.50;;
43248;SDS011;29216;51.248;6.808;2023-07-16T14:51:11;4.60;;;3.10;;
43248;SDS011;29216;51.248;6.808;2023-07-16T14:53:38;5.13;;;2.85;;
43248;SDS011;29216;51.248;6.808;2023-07-16T14:56:04;4.57;;;3.03;;